sensor_id;sensor_type;location;lat;lon;timestamp;temperature;humidity
4604;DHT22;2314;48.272;11.562;2022-10-18T00:01:49;10.40;99.90
4604;DHT22;2314;48.272;11.562;2022-10-18T00:04:16;10.40;99.90
4604;DHT22;2314;48.272;11.562;2022-10-18T00:06:43;10.40;99.90
4604;DHT22;2314;48.272;11.562;2022-10-18T00:09:10;10.40;99.90
4604;DHT22;2314;48.272;11.562;2022-10-18T00:11:37;10.30;99.90
4604;DHT22;2314;48.272;11.562;2022-10-18T00:14:04;10.30;99.90
4604;DHT22;2314;48.272;11.562;2022-10-18T00:16:31;10.30;99.90
4604;DHT22;2314;48.272;11.562;2022-10-18T00:19:00;10.30;99.90
4604;DHT22;2314;48.272;11.562;2022-10-18T00:21:27;10.30;99.90
4604;DHT22;2314;48.272;11.562;2022-10-18T00:23:54;10.20;99.90
4604;DHT22;2314;48.272;11.562;2022-10-18T00:26:23;10.20;99.90
4604;DHT22;2314;48.272;11.562;2022-10-18T00:28:54;10.20;99.90
4604;DHT22;2314;48.272;11.562;2022-10-18T00:31:23;10.20;99.90
4604;DHT22;2314;48.272;11.562;2022-10-18T00:33:52;10.20;99.90
4604;DHT22;2314;48.272;11.562;2022-10-18T00:36:21;10.20;99.90
4604;DHT22;2314;48.272;11.562;2022-10-18T00:38:49;10.20;99.90
4604;DHT22;2314;48.272;11.562;2022-10-18T00:41:18;10.20;99.90
4604;DHT22;2314;48.272;11.562;2022-10-18T00:43:54;10.20;99.90
4604;DHT22;2314;48.272;11.562;2022-10-18T00:46:25;10.10;99.90
4604;DHT22;2314;48.272;11.562;2022-10-18T00:48:54;10.10;99.90
4604;DHT22;2314;48.272;11.562;2022-10-18T00:51:26;10.10;99.90
4604;DHT22;2314;48.272;11.562;2022-10-18T00:53:56;10.10;99.90
4604;DHT22;2314;48.272;11.562;2022-10-18T00:56:24;10.10;99.90
4604;DHT22;2314;48.272;11.562;2022-10-18T00:58:51;10.10;99.90
4604;DHT22;2314;48.272;11.562;2022-10-18T01:01:18;10.00;99.90
4604;DHT22;2314;48.272;11.562;2022-10-18T01:03:45;10.00;99.90
4604;DHT22;2314;48.272;11.562;2022-10-18T01:06:12;10.00;99.90
4604;DHT22;2314;48.272;11.562;2022-10-18T01:11:57;10.20;99.90
4604;DHT22;2314;48.272;11.562;2022-10-18T01:14:42;10.20;99.90
4604;DHT22;2314;48.272;11.562;2022-10-18T01:17:18;10.20;99.90
4604;DHT22;2314;48.272;11.562;2022-10-18T01:20:18;10.20;99.90
4604;DHT22;2314;48.272;11.562;2022-10-18T01:23:01;10.20;99.90
4604;DHT22;2314;48.272;11.562;2022-10-18T01:25:41;10.20;99.90
4604;DHT22;2314;48.272;11.562;2022-10-18T01:28:27;10.30;99.90
4604;DHT22;2314;48.272;11.562;2022-10-18T01:31:03;10.30;99.90
4604;DHT22;2314;48.272;11.562;2022-10-18T01:33:36;10.30;99.90
4604;DHT22;2314;48.272;11.562;2022-10-18T01:36:10;10.30;99.90
4604;DHT22;2314;48.272;11.562;2022-10-18T01:38:42;10.30;99.90
4604;DHT22;2314;48.272;11.562;2022-10-18T01:41:10;10.20;99.90
4604;DHT22;2314;48.272;11.562;2022-10-18T01:43:39;10.20;99.90
4604;DHT22;2314;48.272;11.562;2022-10-18T01:46:08;10.20;99.90
4604;DHT22;2314;48.272;11.562;2022-10-18T01:48:36;10.10;99.90
4604;DHT22;2314;48.272;11.562;2022-10-18T01:51:03;10.10;99.90
4604;DHT22;2314;48.272;11.562;2022-10-18T01:53:32;10.10;99.90
4604;DHT22;2314;48.272;11.562;2022-10-18T01:56:17;10.10;99.90
4604;DHT22;2314;48.272;11.562;2022-10-18T01:59:20;10.00;99.90
4604;DHT22;2314;48.272;11.562;2022-10-18T02:02:01;9.90;99.90
4604;DHT22;2314;48.272;11.562;2022-10-18T02:04:39;9.90;99.90
4604;DHT22;2314;48.272;11.562;2022-10-18T02:07:16;9.80;99.90
4604;DHT22;2314;48.272;11.562;2022-10-18T02:09:57;9.80;99.90
4604;DHT22;2314;48.272;11.562;2022-10-18T02:12:30;9.80;99.90
4604;DHT22;2314;48.272;11.562;2022-10-18T02:14:59;9.80;99.90
4604;DHT22;2314;48.272;11.562;2022-10-18T02:17:29;9.80;99.90
4604;DHT22;2314;48.272;11.562;2022-10-18T02:19:59;9.80;99.90
4604;DHT22;2314;48.272;11.562;2022-10-18T02:22:29;9.80;99.90
4604;DHT22;2314;48.272;11.562;2022-10-18T02:25:01;9.70;99.90
4604;DHT22;2314;48.272;11.562;2022-10-18T02:27:30;9.70;99.90
4604;DHT22;2314;48.272;11.562;2022-10-18T02:29:58;9.60;99.90
4604;DHT22;2314;48.272;11.562;2022-10-18T02:32:30;9.60;99.90
4604;DHT22;2314;48.272;11.562;2022-10-18T02:35:03;9.60;99.90
4604;DHT22;2314;48.272;11.562;2022-10-18T02:37:33;9.60;99.90
4604;DHT22;2314;48.272;11.562;2022-10-18T02:40:03;9.60;99.90
4604;DHT22;2314;48.272;11.562;2022-10-18T02:42:33;9.60;99.90
4604;DHT22;2314;48.272;11.562;2022-10-18T02:45:02;9.60;99.90
4604;DHT22;2314;48.272;11.562;2022-10-18T02:47:31;9.50;99.90
4604;DHT22;2314;48.272;11.562;2022-10-18T02:49:58;9.50;99.90
4604;DHT22;2314;48.272;11.562;2022-10-18T02:52:25;9.40;99.90
4604;DHT22;2314;48.272;11.562;2022-10-18T02:54:52;9.40;99.90
4604;DHT22;2314;48.272;11.562;2022-10-18T02:57:19;9.40;99.90
4604;DHT22;2314;48.272;11.562;2022-10-18T02:59:46;9.40;99.90
4604;DHT22;2314;48.272;11.562;2022-10-18T03:02:13;9.30;99.90
4604;DHT22;2314;48.272;11.562;2022-10-18T03:04:41;9.40;99.90
4604;DHT22;2314;48.272;11.562;2022-10-18T03:07:08;9.40;99.90
4604;DHT22;2314;48.272;11.562;2022-10-18T03:09:35;9.40;99.90
4604;DHT22;2314;48.272;11.562;2022-10-18T03:12:02;9.40;99.90
4604;DHT22;2314;48.272;11.562;2022-10-18T03:14:29;9.40;99.90
4604;DHT22;2314;48.272;11.562;2022-10-18T03:16:56;9.30;99.90
4604;DHT22;2314;48.272;11.562;2022-10-18T03:19:23;9.30;99.90
4604;DHT22;2314;48.272;11.562;2022-10-18T03:21:52;9.40;99.90
4604;DHT22;2314;48.272;11.562;2022-10-18T03:24:19;9.30;99.90
4604;DHT22;2314;48.272;11.562;2022-10-18T03:26:46;9.30;99.90
4604;DHT22;2314;48.272;11.562;2022-10-18T03:29:13;9.30;99.90
4604;DHT22;2314;48.272;11.562;2022-10-18T03:31:40;9.20;99.90
4604;DHT22;2314;48.272;11.562;2022-10-18T03:34:07;9.20;99.90
4604;DHT22;2314;48.272;11.562;2022-10-18T03:36:34;9.30;99.90
4604;DHT22;2314;48.272;11.562;2022-10-18T03:39:02;9.30;99.90
4604;DHT22;2314;48.272;11.562;2022-10-18T03:41:29;9.30;99.90
4604;DHT22;2314;48.272;11.562;2022-10-18T03:43:56;9.40;99.90
4604;DHT22;2314;48.272;11.562;2022-10-18T03:46:23;9.40;99.90
4604;DHT22;2314;48.272;11.562;2022-10-18T03:48:50;9.50;99.90
4604;DHT22;2314;48.272;11.562;2022-10-18T03:51:17;9.50;99.90
4604;DHT22;2314;48.272;11.562;2022-10-18T03:53:44;9.50;99.90
4604;DHT22;2314;48.272;11.562;2022-10-18T03:56:12;9.50;99.90
4604;DHT22;2314;48.272;11.562;2022-10-18T03:58:39;9.50;99.90
4604;DHT22;2314;48.272;11.562;2022-10-18T04:01:06;9.50;99.90
4604;DHT22;2314;48.272;11.562;2022-10-18T04:03:33;9.50;99.90
4604;DHT22;2314;48.272;11.562;2022-10-18T04:06:00;9.60;99.90
4604;DHT22;2314;48.272;11.562;2022-10-18T04:08:28;9.50;99.90
4604;DHT22;2314;48.272;11.562;2022-10-18T04:10:55;9.50;99.90
4604;DHT22;2314;48.272;11.562;2022-10-18T04:13:24;9.40;99.90
4604;DHT22;2314;48.272;11.562;2022-10-18T04:15:51;9.50;99.90
4604;DHT22;2314;48.272;11.562;2022-10-18T04:18:18;9.40;99.90
4604;DHT22;2314;48.272;11.562;2022-10-18T04:20:45;9.40;99.90
4604;DHT22;2314;48.272;11.562;2022-10-18T04:23:12;9.50;99.90
4604;DHT22;2314;48.272;11.562;2022-10-18T04:25:39;9.50;99.90
4604;DHT22;2314;48.272;11.562;2022-10-18T04:28:05;9.50;99.90
4604;DHT22;2314;48.272;11.562;2022-10-18T04:30:35;9.50;99.90
4604;DHT22;2314;48.272;11.562;2022-10-18T04:33:02;9.50;99.90
4604;DHT22;2314;48.272;11.562;2022-10-18T04:35:29;9.50;99.90
4604;DHT22;2314;48.272;11.562;2022-10-18T04:37:56;9.50;99.90
4604;DHT22;2314;48.272;11.562;2022-10-18T04:40:23;9.50;99.90
4604;DHT22;2314;48.272;11.562;2022-10-18T04:42:50;9.50;99.90
4604;DHT22;2314;48.272;11.562;2022-10-18T04:45:17;9.50;99.90
4604;DHT22;2314;48.272;11.562;2022-10-18T04:47:45;9.50;99.90
4604;DHT22;2314;48.272;11.562;2022-10-18T04:50:12;9.50;99.90
4604;DHT22;2314;48.272;11.562;2022-10-18T04:52:39;9.50;99.90
4604;DHT22;2314;48.272;11.562;2022-10-18T04:55:07;9.50;99.90
4604;DHT22;2314;48.272;11.562;2022-10-18T04:57:34;9.50;99.90
4604;DHT22;2314;48.272;11.562;2022-10-18T05:00:01;9.50;99.90
4604;DHT22;2314;48.272;11.562;2022-10-18T05:02:29;9.50;99.90
4604;DHT22;2314;48.272;11.562;2022-10-18T05:04:57;9.60;99.90
4604;DHT22;2314;48.272;11.562;2022-10-18T05:07:24;9.70;99.90
4604;DHT22;2314;48.272;11.562;2022-10-18T05:09:51;9.80;99.90
4604;DHT22;2314;48.272;11.562;2022-10-18T05:12:18;9.80;99.90
4604;DHT22;2314;48.272;11.562;2022-10-18T05:14:46;9.90;99.90
4604;DHT22;2314;48.272;11.562;2022-10-18T05:17:13;9.90;99.90
4604;DHT22;2314;48.272;11.562;2022-10-18T05:19:40;9.90;99.90
4604;DHT22;2314;48.272;11.562;2022-10-18T05:22:09;9.90;99.90
4604;DHT22;2314;48.272;11.562;2022-10-18T05:24:36;9.90;99.90
4604;DHT22;2314;48.272;11.562;2022-10-18T05:27:03;9.90;99.90
4604;DHT22;2314;48.272;11.562;2022-10-18T05:29:30;9.90;99.90
4604;DHT22;2314;48.272;11.562;2022-10-18T05:31:57;9.90;99.90
4604;DHT22;2314;48.272;11.562;2022-10-18T05:34:24;9.90;99.90
4604;DHT22;2314;48.272;11.562;2022-10-18T05:36:51;9.90;99.90
4604;DHT22;2314;48.272;11.562;2022-10-18T05:39:20;9.90;99.90
4604;DHT22;2314;48.272;11.562;2022-10-18T05:41:47;9.90;99.90
4604;DHT22;2314;48.272;11.562;2022-10-18T05:44:14;10.00;99.90
4604;DHT22;2314;48.272;11.562;2022-10-18T05:46:41;10.00;99.90
4604;DHT22;2314;48.272;11.562;2022-10-18T05:49:09;10.00;99.90
4604;DHT22;2314;48.272;11.562;2022-10-18T05:51:37;10.10;99.90
4604;DHT22;2314;48.272;11.562;2022-10-18T05:54:04;10.20;99.90
4604;DHT22;2314;48.272;11.562;2022-10-18T05:56:32;10.20;99.90
4604;DHT22;2314;48.272;11.562;2022-10-18T05:58:59;10.40;99.90
4604;DHT22;2314;48.272;11.562;2022-10-18T06:01:29;10.50;99.90
4604;DHT22;2314;48.272;11.562;2022-10-18T06:03:56;10.50;99.90
4604;DHT22;2314;48.272;11.562;2022-10-18T06:06:23;10.60;99.90
4604;DHT22;2314;48.272;11.562;2022-10-18T06:08:50;10.60;99.90
4604;DHT22;2314;48.272;11.562;2022-10-18T06:11:18;10.70;99.90
4604;DHT22;2314;48.272;11.562;2022-10-18T06:13:48;10.80;99.90
4604;DHT22;2314;48.272;11.562;2022-10-18T06:16:18;10.80;99.90
4604;DHT22;2314;48.272;11.562;2022-10-18T06:18:47;10.90;99.90
4604;DHT22;2314;48.272;11.562;2022-10-18T06:21:15;11.00;99.90
4604;DHT22;2314;48.272;11.562;2022-10-18T06:23:42;11.10;99.90
4604;DHT22;2314;48.272;11.562;2022-10-18T06:26:10;11.10;99.90
4604;DHT22;2314;48.272;11.562;2022-10-18T06:28:37;11.20;99.90
4604;DHT22;2314;48.272;11.562;2022-10-18T06:31:06;11.30;99.90
4604;DHT22;2314;48.272;11.562;2022-10-18T06:33:34;11.40;99.90
4604;DHT22;2314;48.272;11.562;2022-10-18T06:36:04;11.50;99.90
4604;DHT22;2314;48.272;11.562;2022-10-18T06:38:32;11.60;99.90
4604;DHT22;2314;48.272;11.562;2022-10-18T06:40:59;11.60;99.90
4604;DHT22;2314;48.272;11.562;2022-10-18T06:43:27;11.60;99.90
4604;DHT22;2314;48.272;11.562;2022-10-18T06:45:54;11.70;99.90
4604;DHT22;2314;48.272;11.562;2022-10-18T06:48:23;11.70;99.90
4604;DHT22;2314;48.272;11.562;2022-10-18T06:50:52;11.70;99.90
4604;DHT22;2314;48.272;11.562;2022-10-18T06:53:19;11.70;99.90
4604;DHT22;2314;48.272;11.562;2022-10-18T06:55:46;11.70;99.90
4604;DHT22;2314;48.272;11.562;2022-10-18T06:58:14;11.70;99.90
4604;DHT22;2314;48.272;11.562;2022-10-18T07:00:41;11.70;99.90
4604;DHT22;2314;48.272;11.562;2022-10-18T07:03:09;11.70;99.90
4604;DHT22;2314;48.272;11.562;2022-10-18T07:05:38;11.80;99.90
4604;DHT22;2314;48.272;11.562;2022-10-18T07:08:05;11.80;99.90
4604;DHT22;2314;48.272;11.562;2022-10-18T07:10:32;11.80;99.90
4604;DHT22;2314;48.272;11.562;2022-10-18T07:12:59;11.90;99.90
4604;DHT22;2314;48.272;11.562;2022-10-18T07:15:26;11.90;99.90
4604;DHT22;2314;48.272;11.562;2022-10-18T07:17:53;12.00;99.90
4604;DHT22;2314;48.272;11.562;2022-10-18T07:20:20;12.20;99.90
4604;DHT22;2314;48.272;11.562;2022-10-18T07:22:49;12.30;99.90
4604;DHT22;2314;48.272;11.562;2022-10-18T07:25:16;12.40;99.90
4604;DHT22;2314;48.272;11.562;2022-10-18T07:27:43;12.50;99.90
4604;DHT22;2314;48.272;11.562;2022-10-18T07:30:10;12.50;99.90
4604;DHT22;2314;48.272;11.562;2022-10-18T07:32:37;12.50;99.90
4604;DHT22;2314;48.272;11.562;2022-10-18T07:35:05;12.60;99.90
4604;DHT22;2314;48.272;11.562;2022-10-18T07:37:32;12.60;99.90
4604;DHT22;2314;48.272;11.562;2022-10-18T07:40:01;12.70;99.90
4604;DHT22;2314;48.272;11.562;2022-10-18T07:42:28;12.80;99.90
4604;DHT22;2314;48.272;11.562;2022-10-18T07:44:55;12.80;99.90
4604;DHT22;2314;48.272;11.562;2022-10-18T07:47:22;12.80;99.90
4604;DHT22;2314;48.272;11.562;2022-10-18T07:49:49;13.00;99.90
4604;DHT22;2314;48.272;11.562;2022-10-18T07:52:16;13.00;99.90
4604;DHT22;2314;48.272;11.562;2022-10-18T07:54:43;13.10;99.90
4604;DHT22;2314;48.272;11.562;2022-10-18T07:57:12;13.20;99.90
4604;DHT22;2314;48.272;11.562;2022-10-18T07:59:39;13.20;99.90
4604;DHT22;2314;48.272;11.562;2022-10-18T08:02:06;13.30;99.90
4604;DHT22;2314;48.272;11.562;2022-10-18T08:04:33;13.40;99.90
4604;DHT22;2314;48.272;11.562;2022-10-18T08:07:00;13.60;99.90
4604;DHT22;2314;48.272;11.562;2022-10-18T08:09:27;13.70;99.90
4604;DHT22;2314;48.272;11.562;2022-10-18T08:11:54;13.80;99.90
4604;DHT22;2314;48.272;11.562;2022-10-18T08:14:22;14.00;99.90
4604;DHT22;2314;48.272;11.562;2022-10-18T08:16:49;13.90;99.90
4604;DHT22;2314;48.272;11.562;2022-10-18T08:19:16;13.80;99.90
4604;DHT22;2314;48.272;11.562;2022-10-18T08:21:43;13.80;99.90
4604;DHT22;2314;48.272;11.562;2022-10-18T08:24:10;13.90;99.90
4604;DHT22;2314;48.272;11.562;2022-10-18T08:26:37;14.10;99.90
4604;DHT22;2314;48.272;11.562;2022-10-18T08:29:04;14.10;99.90
4604;DHT22;2314;48.272;11.562;2022-10-18T08:31:33;14.30;99.90
4604;DHT22;2314;48.272;11.562;2022-10-18T08:34:00;14.50;99.90
4604;DHT22;2314;48.272;11.562;2022-10-18T08:36:27;14.80;99.90
4604;DHT22;2314;48.272;11.562;2022-10-18T08:38:54;15.20;99.90
4604;DHT22;2314;48.272;11.562;2022-10-18T08:41:32;15.40;99.90
4604;DHT22;2314;48.272;11.562;2022-10-18T08:44:13;15.80;99.90
4604;DHT22;2314;48.272;11.562;2022-10-18T08:46:47;16.10;99.90
4604;DHT22;2314;48.272;11.562;2022-10-18T08:49:21;16.40;99.90
4604;DHT22;2314;48.272;11.562;2022-10-18T08:51:53;16.50;99.90
4604;DHT22;2314;48.272;11.562;2022-10-18T08:54:25;16.60;99.90
4604;DHT22;2314;48.272;11.562;2022-10-18T08:56:58;16.70;99.90
4604;DHT22;2314;48.272;11.562;2022-10-18T08:59:31;17.00;99.90
4604;DHT22;2314;48.272;11.562;2022-10-18T09:02:14;17.20;99.90
4604;DHT22;2314;48.272;11.562;2022-10-18T09:04:50;17.50;99.90
4604;DHT22;2314;48.272;11.562;2022-10-18T09:07:40;18.00;99.90
4604;DHT22;2314;48.272;11.562;2022-10-18T09:10:23;18.10;99.90
4604;DHT22;2314;48.272;11.562;2022-10-18T09:16:20;18.30;99.90
4604;DHT22;2314;48.272;11.562;2022-10-18T09:18:59;18.30;99.90
4604;DHT22;2314;48.272;11.562;2022-10-18T09:21:41;18.30;99.90
4604;DHT22;2314;48.272;11.562;2022-10-18T09:24:21;18.30;99.90
4604;DHT22;2314;48.272;11.562;2022-10-18T09:26:57;18.30;99.90
4604;DHT22;2314;48.272;11.562;2022-10-18T09:29:43;18.40;99.90
4604;DHT22;2314;48.272;11.562;2022-10-18T09:32:28;18.50;99.90
4604;DHT22;2314;48.272;11.562;2022-10-18T09:35:15;18.70;99.90
4604;DHT22;2314;48.272;11.562;2022-10-18T09:37:46;19.10;99.90
4604;DHT22;2314;48.272;11.562;2022-10-18T09:40:15;19.10;99.90
4604;DHT22;2314;48.272;11.562;2022-10-18T09:42:52;19.10;99.90
4604;DHT22;2314;48.272;11.562;2022-10-18T09:45:25;18.90;99.90
4604;DHT22;2314;48.272;11.562;2022-10-18T09:48:02;18.80;99.90
4604;DHT22;2314;48.272;11.562;2022-10-18T09:50:38;18.80;99.90
4604;DHT22;2314;48.272;11.562;2022-10-18T09:53:14;18.60;99.90
4604;DHT22;2314;48.272;11.562;2022-10-18T09:55:53;18.60;99.90
4604;DHT22;2314;48.272;11.562;2022-10-18T09:58:25;18.50;99.90
4604;DHT22;2314;48.272;11.562;2022-10-18T10:00:54;18.60;99.90
4604;DHT22;2314;48.272;11.562;2022-10-18T10:03:21;18.60;99.90
4604;DHT22;2314;48.272;11.562;2022-10-18T10:06:01;18.60;99.90
4604;DHT22;2314;48.272;11.562;2022-10-18T10:08:41;18.70;99.90
4604;DHT22;2314;48.272;11.562;2022-10-18T10:14:15;19.00;99.90
4604;DHT22;2314;48.272;11.562;2022-10-18T10:16:48;19.30;99.90
4604;DHT22;2314;48.272;11.562;2022-10-18T10:19:18;19.60;99.90
4604;DHT22;2314;48.272;11.562;2022-10-18T10:21:55;20.00;99.90
4604;DHT22;2314;48.272;11.562;2022-10-18T10:27:18;20.40;99.90
4604;DHT22;2314;48.272;11.562;2022-10-18T10:29:57;20.40;99.90
4604;DHT22;2314;48.272;11.562;2022-10-18T10:32:28;20.70;99.90
4604;DHT22;2314;48.272;11.562;2022-10-18T10:34:56;20.90;99.90
4604;DHT22;2314;48.272;11.562;2022-10-18T10:37:30;21.10;99.90
4604;DHT22;2314;48.272;11.562;2022-10-18T10:40:21;21.30;99.90
4604;DHT22;2314;48.272;11.562;2022-10-18T10:43:04;21.30;99.90
4604;DHT22;2314;48.272;11.562;2022-10-18T10:45:35;21.20;99.90
4604;DHT22;2314;48.272;11.562;2022-10-18T10:48:07;21.40;99.90
4604;DHT22;2314;48.272;11.562;2022-10-18T10:50:51;21.50;99.90
4604;DHT22;2314;48.272;11.562;2022-10-18T10:53:35;21.50;99.90
4604;DHT22;2314;48.272;11.562;2022-10-18T10:56:10;21.50;99.90
4604;DHT22;2314;48.272;11.562;2022-10-18T10:58:41;21.60;99.90
4604;DHT22;2314;48.272;11.562;2022-10-18T11:01:21;21.70;99.90
4604;DHT22;2314;48.272;11.562;2022-10-18T11:03:52;21.90;99.90
4604;DHT22;2314;48.272;11.562;2022-10-18T11:06:44;22.00;99.90
4604;DHT22;2314;48.272;11.562;2022-10-18T11:09:26;22.30;99.90
4604;DHT22;2314;48.272;11.562;2022-10-18T11:12:12;22.50;99.90
4604;DHT22;2314;48.272;11.562;2022-10-18T11:14:52;22.70;99.90
4604;DHT22;2314;48.272;11.562;2022-10-18T11:17:28;22.80;99.90
4604;DHT22;2314;48.272;11.562;2022-10-18T11:20:21;22.70;99.90
4604;DHT22;2314;48.272;11.562;2022-10-18T11:22:57;22.30;99.90
4604;DHT22;2314;48.272;11.562;2022-10-18T11:25:42;22.50;99.90
4604;DHT22;2314;48.272;11.562;2022-10-18T11:28:32;22.50;99.90
4604;DHT22;2314;48.272;11.562;2022-10-18T11:31:14;22.70;99.90
4604;DHT22;2314;48.272;11.562;2022-10-18T11:33:55;22.80;99.90
4604;DHT22;2314;48.272;11.562;2022-10-18T11:36:37;22.90;99.90
4604;DHT22;2314;48.272;11.562;2022-10-18T11:39:13;23.10;99.90
4604;DHT22;2314;48.272;11.562;2022-10-18T11:41:50;23.10;99.90
4604;DHT22;2314;48.272;11.562;2022-10-18T11:44:26;22.70;99.90
4604;DHT22;2314;48.272;11.562;2022-10-18T11:47:05;22.70;99.90
4604;DHT22;2314;48.272;11.562;2022-10-18T11:49:57;22.60;99.90
4604;DHT22;2314;48.272;11.562;2022-10-18T11:52:37;22.50;99.90
4604;DHT22;2314;48.272;11.562;2022-10-18T11:55:22;22.80;99.90
4604;DHT22;2314;48.272;11.562;2022-10-18T11:58:01;22.70;99.90
4604;DHT22;2314;48.272;11.562;2022-10-18T12:00:45;22.80;99.90
4604;DHT22;2314;48.272;11.562;2022-10-18T12:03:21;22.90;99.90
4604;DHT22;2314;48.272;11.562;2022-10-18T12:05:55;22.80;99.90
4604;DHT22;2314;48.272;11.562;2022-10-18T12:08:27;23.10;99.90
4604;DHT22;2314;48.272;11.562;2022-10-18T12:11:05;23.30;99.90
4604;DHT22;2314;48.272;11.562;2022-10-18T12:13:42;23.20;99.90
4604;DHT22;2314;48.272;11.562;2022-10-18T12:16:11;23.30;99.90
4604;DHT22;2314;48.272;11.562;2022-10-18T12:18:46;23.40;99.90
4604;DHT22;2314;48.272;11.562;2022-10-18T12:21:20;23.40;99.90
4604;DHT22;2314;48.272;11.562;2022-10-18T12:23:51;23.50;99.90
4604;DHT22;2314;48.272;11.562;2022-10-18T12:26:20;23.40;99.90
4604;DHT22;2314;48.272;11.562;2022-10-18T12:28:59;23.30;99.90
4604;DHT22;2314;48.272;11.562;2022-10-18T12:31:31;23.10;99.90
4604;DHT22;2314;48.272;11.562;2022-10-18T12:34:06;23.10;99.90
4604;DHT22;2314;48.272;11.562;2022-10-18T12:39:59;23.10;99.90
4604;DHT22;2314;48.272;11.562;2022-10-18T12:42:30;23.10;99.90
4604;DHT22;2314;48.272;11.562;2022-10-18T12:45:05;23.20;
4604;DHT22;2314;48.272;11.562;2022-10-18T12:48:00;23.30;99.90
4604;DHT22;2314;48.272;11.562;2022-10-18T12:50:31;23.30;99.90
4604;DHT22;2314;48.272;11.562;2022-10-18T12:53:02;23.40;99.90
4604;DHT22;2314;48.272;11.562;2022-10-18T12:55:33;23.30;99.90
4604;DHT22;2314;48.272;11.562;2022-10-18T12:58:21;23.20;99.90
4604;DHT22;2314;48.272;11.562;2022-10-18T13:01:02;23.10;99.90
4604;DHT22;2314;48.272;11.562;2022-10-18T13:03:54;23.20;99.90
4604;DHT22;2314;48.272;11.562;2022-10-18T13:06:23;23.50;99.90
4604;DHT22;2314;48.272;11.562;2022-10-18T13:09:18;23.50;99.90
4604;DHT22;2314;48.272;11.562;2022-10-18T13:11:47;23.20;99.90
4604;DHT22;2314;48.272;11.562;2022-10-18T13:14:35;23.10;99.90
4604;DHT22;2314;48.272;11.562;2022-10-18T13:17:20;22.90;99.90
4604;DHT22;2314;48.272;11.562;2022-10-18T13:20:01;22.80;99.90
4604;DHT22;2314;48.272;11.562;2022-10-18T13:22:58;22.70;99.90
4604;DHT22;2314;48.272;11.562;2022-10-18T13:25:37;22.50;99.90
4604;DHT22;2314;48.272;11.562;2022-10-18T13:28:21;22.30;99.90
4604;DHT22;2314;48.272;11.562;2022-10-18T13:30:55;22.30;99.90
4604;DHT22;2314;48.272;11.562;2022-10-18T13:33:33;22.20;99.90
4604;DHT22;2314;48.272;11.562;2022-10-18T13:36:02;22.20;99.90
4604;DHT22;2314;48.272;11.562;2022-10-18T13:38:36;22.20;99.90
4604;DHT22;2314;48.272;11.562;2022-10-18T13:41:08;22.10;99.90
4604;DHT22;2314;48.272;11.562;2022-10-18T13:53:32;21.70;99.90
4604;DHT22;2314;48.272;11.562;2022-10-18T13:56:20;21.60;99.90
4604;DHT22;2314;48.272;11.562;2022-10-18T13:59:08;21.50;99.90
4604;DHT22;2314;48.272;11.562;2022-10-18T14:01:52;21.40;99.90
4604;DHT22;2314;48.272;11.562;2022-10-18T14:04:46;21.40;99.90
4604;DHT22;2314;48.272;11.562;2022-10-18T14:07:26;21.20;99.90
4604;DHT22;2314;48.272;11.562;2022-10-18T14:09:54;21.00;99.90
4604;DHT22;2314;48.272;11.562;2022-10-18T14:12:27;21.10;99.90
4604;DHT22;2314;48.272;11.562;2022-10-18T14:15:02;21.10;99.90
4604;DHT22;2314;48.272;11.562;2022-10-18T14:17:35;21.00;99.90
4604;DHT22;2314;48.272;11.562;2022-10-18T14:20:17;21.00;99.90
4604;DHT22;2314;48.272;11.562;2022-10-18T14:22:53;21.00;99.90
4604;DHT22;2314;48.272;11.562;2022-10-18T14:25:28;21.10;99.90
4604;DHT22;2314;48.272;11.562;2022-10-18T14:28:10;21.10;99.90
4604;DHT22;2314;48.272;11.562;2022-10-18T14:30:52;21.10;99.90
4604;DHT22;2314;48.272;11.562;2022-10-18T14:33:26;21.20;99.90
4604;DHT22;2314;48.272;11.562;2022-10-18T14:36:06;21.20;99.90
4604;DHT22;2314;48.272;11.562;2022-10-18T14:38:44;21.30;99.90
4604;DHT22;2314;48.272;11.562;2022-10-18T14:41:15;21.20;99.90
4604;DHT22;2314;48.272;11.562;2022-10-18T14:43:43;21.00;99.90
4604;DHT22;2314;48.272;11.562;2022-10-18T14:46:17;20.80;99.90
4604;DHT22;2314;48.272;11.562;2022-10-18T14:48:52;20.70;99.90
4604;DHT22;2314;48.272;11.562;2022-10-18T14:51:20;20.70;99.90
4604;DHT22;2314;48.272;11.562;2022-10-18T14:53:50;20.80;99.90
4604;DHT22;2314;48.272;11.562;2022-10-18T14:56:26;20.70;99.90
4604;DHT22;2314;48.272;11.562;2022-10-18T14:58:56;20.80;99.90
4604;DHT22;2314;48.272;11.562;2022-10-18T15:01:29;20.70;99.90
4604;DHT22;2314;48.272;11.562;2022-10-18T15:03:58;20.60;99.90
4604;DHT22;2314;48.272;11.562;2022-10-18T15:06:26;20.50;99.90
4604;DHT22;2314;48.272;11.562;2022-10-18T15:08:56;20.40;99.90
4604;DHT22;2314;48.272;11.562;2022-10-18T15:11:25;20.40;99.90
4604;DHT22;2314;48.272;11.562;2022-10-18T15:13:55;20.30;99.90
4604;DHT22;2314;48.272;11.562;2022-10-18T15:16:25;20.20;99.90
4604;DHT22;2314;48.272;11.562;2022-10-18T15:19:01;20.20;99.90
4604;DHT22;2314;48.272;11.562;2022-10-18T15:21:31;20.10;99.90
4604;DHT22;2314;48.272;11.562;2022-10-18T15:24:18;20.00;99.90
4604;DHT22;2314;48.272;11.562;2022-10-18T15:26:47;20.00;99.90
4604;DHT22;2314;48.272;11.562;2022-10-18T15:29:17;20.00;99.90
4604;DHT22;2314;48.272;11.562;2022-10-18T15:31:45;19.90;99.90
4604;DHT22;2314;48.272;11.562;2022-10-18T15:34:16;19.90;99.90
4604;DHT22;2314;48.272;11.562;2022-10-18T15:36:46;19.80;99.90
4604;DHT22;2314;48.272;11.562;2022-10-18T15:39:16;19.60;99.90
4604;DHT22;2314;48.272;11.562;2022-10-18T15:41:47;19.50;99.90
4604;DHT22;2314;48.272;11.562;2022-10-18T15:44:23;19.00;99.90
4604;DHT22;2314;48.272;11.562;2022-10-18T15:46:54;18.60;99.90
4604;DHT22;2314;48.272;11.562;2022-10-18T15:49:48;18.50;99.90
4604;DHT22;2314;48.272;11.562;2022-10-18T15:52:36;18.30;99.90
4604;DHT22;2314;48.272;11.562;2022-10-18T15:58:15;17.90;99.90
4604;DHT22;2314;48.272;11.562;2022-10-18T16:00:44;17.80;99.90
4604;DHT22;2314;48.272;11.562;2022-10-18T16:03:12;17.70;99.90
4604;DHT22;2314;48.272;11.562;2022-10-18T16:05:40;17.60;99.90
4604;DHT22;2314;48.272;11.562;2022-10-18T16:08:17;17.50;99.90
4604;DHT22;2314;48.272;11.562;2022-10-18T16:10:45;17.50;99.90
4604;DHT22;2314;48.272;11.562;2022-10-18T16:13:13;17.40;99.90
4604;DHT22;2314;48.272;11.562;2022-10-18T16:15:41;17.30;99.90
4604;DHT22;2314;48.272;11.562;2022-10-18T16:18:12;17.30;99.90
4604;DHT22;2314;48.272;11.562;2022-10-18T16:20:40;17.30;99.90
4604;DHT22;2314;48.272;11.562;2022-10-18T16:23:15;17.20;99.90
4604;DHT22;2314;48.272;11.562;2022-10-18T16:25:44;17.20;99.90
4604;DHT22;2314;48.272;11.562;2022-10-18T16:28:14;17.20;99.90
4604;DHT22;2314;48.272;11.562;2022-10-18T16:30:44;17.10;99.90
4604;DHT22;2314;48.272;11.562;2022-10-18T16:33:15;17.10;99.90
4604;DHT22;2314;48.272;11.562;2022-10-18T16:35:42;17.10;99.90
4604;DHT22;2314;48.272;11.562;2022-10-18T16:38:20;17.00;99.90
4604;DHT22;2314;48.272;11.562;2022-10-18T16:40:50;17.00;99.90
4604;DHT22;2314;48.272;11.562;2022-10-18T16:43:19;17.00;99.90
4604;DHT22;2314;48.272;11.562;2022-10-18T16:45:46;17.00;99.90
4604;DHT22;2314;48.272;11.562;2022-10-18T16:48:15;17.00;99.90
4604;DHT22;2314;48.272;11.562;2022-10-18T16:50:43;17.00;99.90